Corona Royal — 3FFM6 — position and weather

sailwx.info

Track history (hours):
 
Tides and Currents Weather Stations Pressure Air Temp Water Temp Dewpoint Dewpoint Depression Visibility Wind Speed Wind Dir Waves Ship Positions

Corona Royal

Last reported at 2018-Jan-25 14:05 UTC. Time now 2018-Feb-21 23:01 UTC.
Position S 27°02' E 153°52'.
Warning: this ship's position is 27 days out of date.

Length 230 m; draft 12.8 m.

Type: Cargo ship. MMSI: 357338000.

Date/timePositionNaut miles runAvg speedWind from/ knotsBaromVisibWave heightAir tempDewpointWater temp
2018-Jan-25 14:05S 27°02' E 153°52'210.9
2018-Jan-25 13:56S 27°03' E 153°51'511.1
2018-Jan-25 13:30S 27°08' E 153°50'511.0
2018-Jan-25 13:00S 27°13' E 153°50'710.8
2018-Jan-25 12:19S 27°21' E 153°49'510.5
2018-Jan-25 11:50S 27°26' E 153°49'410.4
2018-Jan-25 11:26S 27°30' E 153°49'410.4
2018-Jan-25 11:00S 27°35' E 153°49'510.5
2018-Jan-25 10:30S 27°40' E 153°49'610.6
2018-Jan-25 09:59S 27°45' E 153°49'510.5
2018-Jan-25 09:30S 27°50' E 153°49'510.6
2018-Jan-25 09:00S 27°56' E 153°49'510.5
2018-Jan-25 08:30S 28°01' E 153°49'510.6
2018-Jan-25 08:00S 28°06' E 153°49'510.4
2018-Jan-25 07:30S 28°11' E 153°49'510.1
2018-Jan-25 07:00S 28°16' E 153°48'510.0
2018-Jan-25 06:30S 28°21' E 153°48'5 9.8
2018-Jan-25 05:57S 28°27' E 153°48'4 9.4
2018-Jan-25 05:30S 28°31' E 153°48'4 9.2
2018-Jan-25 05:00S 28°36' E 153°48'5 9.1
2018-Jan-25 04:30S 28°40' E 153°48'18 9.1
2018-Jan-25 02:30S 28°58' E 153°48'17310.0
2018-Jan-24 09:16S 31°47' E 153°00'3 9.4
2018-Jan-24 08:55S 31°50' E 152°59'5 9.7
2018-Jan-24 08:25S 31°54' E 152°56'510.3
2018-Jan-24 07:54S 31°59' E 152°54'410.4
2018-Jan-24 07:30S 32°03' E 152°52'610.4
2018-Jan-24 06:56S 32°08' E 152°49'1210.6
2018-Jan-24 05:47S 32°19' E 152°43'310.9
2018-Jan-24 05:30S 32°22' E 152°42'510.9
2018-Jan-24 05:00S 32°27' E 152°40'510.5
2018-Jan-24 04:30S 32°32' E 152°36'510.9
2018-Jan-24 04:00S 32°35' E 152°32'611.1
2018-Jan-24 03:30S 32°39' E 152°27'611.0
2018-Jan-24 03:00S 32°43' E 152°22'611.0
2018-Jan-24 02:30S 32°47' E 152°18'510.8
2018-Jan-24 02:00S 32°51' E 152°13'510.5
2018-Jan-24 01:30S 32°53' E 152°08'611.2
2018-Jan-24 01:00S 32°56' E 152°02'510.7
2018-Jan-24 00:30S 32°56' E 151°55'5 9.4
2018-Jan-24 00:00S 32°56' E 151°50'2 4.9
2018-Jan-23 23:30S 32°55' E 151°47'2 3.8
2018-Jan-23 23:00S 32°54' E 151°46'0 0.4
2018-Jan-23 22:09S 32°53' E 151°46'0 0.0
2018-Jan-23 21:48S 32°53' E 151°46'0 0.0
2018-Jan-23 21:30S 32°53' E 151°46'0 0.0
2018-Jan-23 21:00S 32°53' E 151°46'0 0.0
2018-Jan-23 20:30S 32°53' E 151°46'0 0.0
2018-Jan-23 19:30S 32°53' E 151°46'0 0.0
2018-Jan-23 19:00S 32°53' E 151°46'0 0.0
2018-Jan-23 18:30S 32°53' E 151°46'0 0.0
2018-Jan-23 18:00S 32°53' E 151°46'0 0.0
2018-Jan-23 17:18S 32°53' E 151°46'0 0.0
2018-Jan-23 17:00S 32°53' E 151°46'0 0.0
2018-Jan-23 16:30S 32°53' E 151°46'0 0.0
2018-Jan-23 15:42S 32°53' E 151°46'0 0.0
2018-Jan-23 15:30S 32°53' E 151°46'0 0.0
2018-Jan-23 15:00S 32°53' E 151°46'0 0.0
2018-Jan-23 14:27S 32°53' E 151°46'0 0.0
2018-Jan-23 14:00S 32°53' E 151°46'0 0.0
2018-Jan-23 13:30S 32°53' E 151°46'0 0.0
2018-Jan-23 13:00S 32°53' E 151°46'0 0.0
2018-Jan-23 11:48S 32°53' E 151°46'0 0.0
2018-Jan-23 11:30S 32°53' E 151°46'0 0.0
2018-Jan-23 11:00S 32°53' E 151°46'0 0.0
2018-Jan-23 10:30S 32°53' E 151°46'0 0.0
2018-Jan-23 09:45S 32°53' E 151°46'0 0.0
2018-Jan-23 09:30S 32°53' E 151°46'0 0.0
2018-Jan-23 09:00S 32°53' E 151°46'0 0.0
2018-Jan-23 08:30S 32°53' E 151°46'0 0.0
2018-Jan-23 08:00S 32°53' E 151°46'0 0.0
2018-Jan-23 07:30S 32°53' E 151°46'0 0.0
2018-Jan-23 07:00S 32°53' E 151°46'0 1.0
2018-Jan-23 06:30S 32°54' E 151°46'2 3.8
2018-Jan-23 06:00S 32°55' E 151°48'5 9.0
2018-Jan-23 05:29S 32°58' E 151°52'2 5.0
2018-Jan-23 05:00S 33°01' E 151°52'5 9.4
2018-Jan-23 04:30S 33°05' E 151°49'1 1.8
2018-Jan-23 04:00S 33°05' E 151°49'1 1.6
2018-Jan-23 03:30S 33°06' E 151°50'1 1.4
2018-Jan-23 03:00S 33°06' E 151°51'1 1.4
2018-Jan-23 02:30S 33°06' E 151°52'1 1.4
2018-Jan-23 02:00S 33°06' E 151°52'1 1.2
2018-Jan-23 01:30S 33°06' E 151°53'1 1.4
2018-Jan-23 01:00S 33°06' E 151°54'1 1.5
2018-Jan-23 00:30S 33°06' E 151°55'1 1.6
2018-Jan-23 00:00S 33°06' E 151°56'1 1.5
2018-Jan-22 23:30S 33°07' E 151°57'1 1.8
2018-Jan-22 23:00S 33°07' E 151°58'1 2.1
2018-Jan-22 22:30S 33°08' E 151°59'5 9.5
2018-Jan-22 22:00S 33°12' E 151°60'611.0
2018-Jan-22 21:30S 33°18' E 151°59'611.8
2018-Jan-22 21:01S 33°21' E 151°53'612.1
2018-Jan-22 20:30S 33°24' E 151°47'3 3.9
2018-Jan-22 19:37S 33°27' E 151°44'0 1.2
2018-Jan-22 19:22S 33°27' E 151°44'1 1.2
2018-Jan-22 18:49S 33°27' E 151°45'0 1.3
2018-Jan-22 18:28S 33°27' E 151°46'2 1.6
2018-Jan-22 17:07S 33°26' E 151°48'0 1.8
2018-Jan-22 16:58S 33°26' E 151°48'2 1.9
2018-Jan-22 16:07S 33°25' E 151°50'0 2.0
2018-Jan-22 15:55S 33°25' E 151°51'1 2.0
2018-Jan-22 15:25S 33°24' E 151°52'1 2.2
2018-Jan-22 14:55S 33°24' E 151°53'1 2.4
2018-Jan-22 14:23S 33°23' E 151°54'1 2.6
2018-Jan-22 14:00S 33°23' E 151°55'1 2.7
2018-Jan-22 13:30S 33°22' E 151°56'1 2.8
2018-Jan-22 13:00S 33°21' E 151°58'2 3.2
2018-Jan-22 12:30S 33°20' E 151°59'2 3.3
2018-Jan-22 12:00S 33°19' E 152°00'2 3.3
2018-Jan-22 11:30S 33°18' E 152°02'2 3.3
2018-Jan-22 11:00S 33°17' E 152°04'2 3.5
2018-Jan-22 10:30S 33°16' E 152°05'2 3.5
2018-Jan-22 10:00S 33°15' E 152°07'2 3.4
2018-Jan-22 09:30S 33°14' E 152°09'2 3.3
2018-Jan-22 09:00S 33°13' E 152°11'2 3.2
2018-Jan-22 08:30S 33°12' E 152°12'2 3.2
2018-Jan-22 08:00S 33°12' E 152°14'2 3.1
2018-Jan-22 07:31S 33°11' E 152°15'2 3.0
2018-Jan-22 07:00S 33°10' E 152°17'1 2.7
2018-Jan-22 06:30S 33°10' E 152°19'5 9.2
2018-Jan-22 06:00S 33°15' E 152°19'511.0
2018-Jan-22 05:30S 33°20' E 152°19'611.2
2018-Jan-22 05:00S 33°26' E 152°20'611.2
2018-Jan-22 04:30S 33°31' E 152°20'611.2
2018-Jan-22 04:00S 33°37' E 152°21'611.1
2018-Jan-22 03:30S 33°43' E 152°22'511.1
2018-Jan-22 03:00S 33°48' E 152°23'611.1
2018-Jan-22 02:30S 33°53' E 152°25'511.0
2018-Jan-22 02:00S 33°59' E 152°26'3 6.3
2018-Jan-22 01:27S 34°02' E 152°26'1 2.9
2018-Jan-22 01:00S 34°01' E 152°26'1 2.9
2018-Jan-22 00:29S 33°59' E 152°26'1 3.0
2018-Jan-22 00:00S 33°58' E 152°25'2 3.0
2018-Jan-21 23:29S 33°56' E 152°25'1 2.9
2018-Jan-21 22:59S 33°55' E 152°25'1 2.9
2018-Jan-21 22:30S 33°54' E 152°25'1 2.9
2018-Jan-21 22:00S 33°52' E 152°24'1 2.7
2018-Jan-21 21:30S 33°51' E 152°24'1 2.8
2018-Jan-21 21:01S 33°49' E 152°24'1 2.7
2018-Jan-21 20:30S 33°48' E 152°23'1 2.7
2018-Jan-21 19:59S 33°47' E 152°23'1 2.8
2018-Jan-21 19:30S 33°45' E 152°22'1 2.6
2018-Jan-21 19:00S 33°44' E 152°22'2 2.7
2018-Jan-21 18:25S 33°43' E 152°22'1 2.8
2018-Jan-21 18:00S 33°42' E 152°21'1 2.9
2018-Jan-21 17:30S 33°40' E 152°21'1 2.9
2018-Jan-21 17:00S 33°39' E 152°21'1 2.9
2018-Jan-21 16:30S 33°37' E 152°20'2 3.0
2018-Jan-21 15:57S 33°36' E 152°20'2 3.0
2018-Jan-21 15:26S 33°34' E 152°20'3 2.9
2018-Jan-21 14:35S 33°32' E 152°19'0 2.9
2018-Jan-21 14:30S 33°31' E 152°19'2 3.0
2018-Jan-21 13:58S 33°30' E 152°19'1 3.1
2018-Jan-21 13:30S 33°28' E 152°19'2 3.1
2018-Jan-21 13:00S 33°27' E 152°19'2 3.3
2018-Jan-21 12:30S 33°25' E 152°19'2 3.2
2018-Jan-21 11:57S 33°23' E 152°19'2 3.3
2018-Jan-21 11:25S 33°22' E 152°20'1 3.2
2018-Jan-21 10:59S 33°20' E 152°20'2 3.2
2018-Jan-21 10:29S 33°19' E 152°20'1 3.1
2018-Jan-21 10:00S 33°17' E 152°21'2 3.0
2018-Jan-21 09:28S 33°16' E 152°21'1 2.9
2018-Jan-21 09:00S 33°14' E 152°21'1 2.9
2018-Jan-21 08:30S 33°13' E 152°22'1 2.8
2018-Jan-21 08:00S 33°12' E 152°22'1 2.6
2018-Jan-21 07:30S 33°10' E 152°23'1 2.5
2018-Jan-21 07:00S 33°09' E 152°23'1 2.4
2018-Jan-21 06:30S 33°08' E 152°24'1 2.3
2018-Jan-21 05:58S 33°07' E 152°25'1 2.2
2018-Jan-21 05:27S 33°06' E 152°25'1 2.0
2018-Jan-21 04:51S 33°05' E 152°25'1 2.0
2018-Jan-21 04:28S 33°04' E 152°25'3 7.0
2018-Jan-21 04:01S 33°04' E 152°21'611.3
2018-Jan-21 03:31S 33°06' E 152°15'611.3
2018-Jan-21 03:00S 33°07' E 152°08'611.8
2018-Jan-21 02:30S 33°09' E 152°02'611.8
2018-Jan-21 02:01S 33°11' E 151°55'4 7.5
2018-Jan-21 01:30S 33°12' E 151°51'1 1.5
2018-Jan-21 00:50S 33°11' E 151°52'1 1.3
2018-Jan-21 00:17S 33°11' E 151°53'1 1.1
2018-Jan-20 23:50S 33°11' E 151°53'0 1.1
2018-Jan-20 23:29S 33°11' E 151°54'1 0.9
2018-Jan-20 22:53S 33°11' E 151°54'0 1.0
2018-Jan-20 22:26S 33°11' E 151°55'1 0.9
2018-Jan-20 21:50S 33°11' E 151°56'0 1.0
2018-Jan-20 21:26S 33°11' E 151°56'0 1.0
2018-Jan-20 20:59S 33°11' E 151°57'1 0.9
2018-Jan-20 20:26S 33°12' E 151°57'1 0.8
2018-Jan-20 19:02S 33°12' E 151°59'0 0.7
2018-Jan-20 18:44S 33°12' E 151°59'0 0.8
2018-Jan-20 18:17S 33°12' E 151°59'0 0.6
2018-Jan-20 17:56S 33°12' E 151°60'0 0.8
2018-Jan-20 17:29S 33°12' E 151°60'0 0.7
2018-Jan-20 16:56S 33°12' E 152°00'1 0.8
2018-Jan-20 16:14S 33°12' E 152°01'0 0.8
2018-Jan-20 15:56S 33°12' E 152°01'0 0.8
2018-Jan-20 15:29S 33°12' E 152°02'1 0.9
2018-Jan-20 14:53S 33°12' E 152°02'0 0.9
2018-Jan-20 14:26S 33°12' E 152°03'0 0.9
2018-Jan-20 13:56S 33°11' E 152°03'1 1.1
2018-Jan-20 13:26S 33°11' E 152°04'0 1.1
2018-Jan-20 12:59S 33°11' E 152°05'1 1.2
2018-Jan-20 12:26S 33°11' E 152°05'1 1.5
2018-Jan-20 11:56S 33°11' E 152°06'1 1.8
2018-Jan-20 11:23S 33°10' E 152°07'1 1.9
2018-Jan-20 10:59S 33°10' E 152°08'1 1.9
2018-Jan-20 10:26S 33°09' E 152°09'1 2.2
2018-Jan-20 09:59S 33°09' E 152°10'1 2.2
2018-Jan-20 09:27S 33°08' E 152°11'1 2.1
2018-Jan-20 09:00S 33°08' E 152°12'1 2.1
2018-Jan-20 08:30S 33°07' E 152°14'1 2.0
2018-Jan-20 08:00S 33°07' E 152°15'1 2.0
2018-Jan-20 07:30S 33°07' E 152°16'1 1.1
2018-Jan-20 07:00S 33°06' E 152°16'4 7.7
2018-Jan-20 06:30S 33°05' E 152°12'612.4
2018-Jan-20 06:00S 33°02' E 152°05'612.0
2018-Jan-20 05:31S 32°59' E 151°59'612.0
2018-Jan-20 05:01S 32°55' E 152°04'714.0
2018-Jan-20 04:30S 32°52' E 152°11'713.7
2018-Jan-20 04:00S 32°47' E 152°18'713.6
2018-Jan-20 03:30S 32°43' E 152°23'713.4
2018-Jan-20 03:00S 32°38' E 152°29'713.7
2018-Jan-20 02:30S 32°33' E 152°34'713.4
2018-Jan-20 02:00S 32°27' E 152°39'613.3
2018-Jan-20 01:31S 32°22' E 152°42'713.2
2018-Jan-20 01:00S 32°15' E 152°46'613.1
2018-Jan-20 00:30S 32°10' E 152°49'1612.8
2018-Jan-19 23:15S 31°55' E 152°56'412.9
2018-Jan-19 22:56S 31°51' E 152°58'613.0
2018-Jan-19 22:30S 31°46' E 153°01'713.0
2018-Jan-19 21:56S 31°39' E 153°05'713.1
2018-Jan-19 21:27S 31°33' E 153°08'613.1
2018-Jan-19 21:00S 31°28' E 153°10'2115.8
2018-Jan-19 19:40S 31°07' E 153°15'1910.7
2018-Jan-19 17:53S 30°49' E 153°20'513.1
2018-Jan-19 17:30S 30°44' E 153°21'2012.9
2018-Jan-19 15:59S 30°24' E 153°26'5512.4
2018-Jan-19 11:35S 29°31' E 153°40'1812.9
2018-Jan-19 10:09S 29°13' E 153°45'313.1
2018-Jan-19 09:57S 29°11' E 153°45'613.6
2018-Jan-19 09:28S 29°04' E 153°47'2713.4
2018-Jan-19 07:28S 28°38' E 153°47'813.6
2018-Jan-19 06:52S 28°29' E 153°47'513.7
2018-Jan-19 06:31S 28°25' E 153°47'713.7
2018-Jan-19 06:01S 28°18' E 153°47'713.8
2018-Jan-19 05:30S 28°11' E 153°47'713.0
2018-Jan-19 05:00S 28°04' E 153°47'612.4
2018-Jan-19 04:30S 27°58' E 153°47'612.6
2018-Jan-19 04:00S 27°52' E 153°47'612.9
2018-Jan-19 03:30S 27°45' E 153°48'712.6
2018-Jan-19 02:58S 27°39' E 153°48'612.8
2018-Jan-19 02:30S 27°33' E 153°48'612.1
2018-Jan-19 02:00S 27°26' E 153°49'712.6
2018-Jan-19 01:27S 27°20' E 153°50'612.6
2018-Jan-19 01:00S 27°14' E 153°50'612.6
2018-Jan-19 00:30S 27°08' E 153°50'912.9
2018-Jan-18 23:49S 26°59' E 153°51'513.0
2018-Jan-18 23:25S 26°54' E 153°52'613.3
2018-Jan-18 22:59S 26°48' E 153°52'613.4
2018-Jan-18 22:31S 26°42' E 153°53'713.0
2018-Jan-18 21:58S 26°35' E 153°53'1012.4
2018-Jan-18 21:08S 26°24' E 153°54'212.2
2018-Jan-18 21:00S 26°23' E 153°54'612.6
2018-Jan-18 20:29S 26°16' E 153°55'613.0
2018-Jan-18 20:00S 26°10' E 153°55'713.2
2018-Jan-18 19:30S 26°03' E 153°56'1614.2
2018-Jan-18 18:23S 25°47' E 153°57'713.7
2018-Jan-18 17:50S 25°40' E 153°57'612.8
2018-Jan-18 17:24S 25°34' E 153°58'512.6
2018-Jan-18 17:00S 25°30' E 153°58'  
Track history (hours):
 
Tides and Currents Weather Stations Pressure Air Temp Water Temp Dewpoint Dewpoint Depression Visibility Wind Speed Wind Dir Waves Ship Positions

Corona Royal

Last reported at 2018-Jan-25 14:05 UTC. Time now 2018-Feb-21 23:01 UTC.
Position S 27°02' E 153°52'.
Warning: this ship's position is 27 days out of date.

Length 230 m; draft 12.8 m.

Type: Cargo ship. MMSI: 357338000.

Date/timePositionNaut miles runAvg speedWind from/ knotsBaromVisibWave heightAir tempDewpointWater temp
2018-Jan-25 14:05S 27°02' E 153°52'210.9
2018-Jan-25 13:56S 27°03' E 153°51'511.1
2018-Jan-25 13:30S 27°08' E 153°50'511.0
2018-Jan-25 13:00S 27°13' E 153°50'710.8
2018-Jan-25 12:19S 27°21' E 153°49'510.5
2018-Jan-25 11:50S 27°26' E 153°49'410.4
2018-Jan-25 11:26S 27°30' E 153°49'410.4
2018-Jan-25 11:00S 27°35' E 153°49'510.5
2018-Jan-25 10:30S 27°40' E 153°49'610.6
2018-Jan-25 09:59S 27°45' E 153°49'510.5
2018-Jan-25 09:30S 27°50' E 153°49'510.6
2018-Jan-25 09:00S 27°56' E 153°49'510.5
2018-Jan-25 08:30S 28°01' E 153°49'510.6
2018-Jan-25 08:00S 28°06' E 153°49'510.4
2018-Jan-25 07:30S 28°11' E 153°49'510.1
2018-Jan-25 07:00S 28°16' E 153°48'510.0
2018-Jan-25 06:30S 28°21' E 153°48'5 9.8
2018-Jan-25 05:57S 28°27' E 153°48'4 9.4
2018-Jan-25 05:30S 28°31' E 153°48'4 9.2
2018-Jan-25 05:00S 28°36' E 153°48'5 9.1
2018-Jan-25 04:30S 28°40' E 153°48'18 9.1
2018-Jan-25 02:30S 28°58' E 153°48'17310.0
2018-Jan-24 09:16S 31°47' E 153°00'3 9.4
2018-Jan-24 08:55S 31°50' E 152°59'5 9.7
2018-Jan-24 08:25S 31°54' E 152°56'510.3
2018-Jan-24 07:54S 31°59' E 152°54'410.4
2018-Jan-24 07:30S 32°03' E 152°52'610.4
2018-Jan-24 06:56S 32°08' E 152°49'1210.6
2018-Jan-24 05:47S 32°19' E 152°43'310.9
2018-Jan-24 05:30S 32°22' E 152°42'510.9
2018-Jan-24 05:00S 32°27' E 152°40'510.5
2018-Jan-24 04:30S 32°32' E 152°36'510.9
2018-Jan-24 04:00S 32°35' E 152°32'611.1
2018-Jan-24 03:30S 32°39' E 152°27'611.0
2018-Jan-24 03:00S 32°43' E 152°22'611.0
2018-Jan-24 02:30S 32°47' E 152°18'510.8
2018-Jan-24 02:00S 32°51' E 152°13'510.5
2018-Jan-24 01:30S 32°53' E 152°08'611.2
2018-Jan-24 01:00S 32°56' E 152°02'510.7
2018-Jan-24 00:30S 32°56' E 151°55'5 9.4
2018-Jan-24 00:00S 32°56' E 151°50'2 4.9
2018-Jan-23 23:30S 32°55' E 151°47'2 3.8
2018-Jan-23 23:00S 32°54' E 151°46'0 0.4
2018-Jan-23 22:09S 32°53' E 151°46'0 0.0
2018-Jan-23 21:48S 32°53' E 151°46'0 0.0
2018-Jan-23 21:30S 32°53' E 151°46'0 0.0
2018-Jan-23 21:00S 32°53' E 151°46'0 0.0
2018-Jan-23 20:30S 32°53' E 151°46'0 0.0
2018-Jan-23 19:30S 32°53' E 151°46'0 0.0
2018-Jan-23 19:00S 32°53' E 151°46'0 0.0
2018-Jan-23 18:30S 32°53' E 151°46'0 0.0
2018-Jan-23 18:00S 32°53' E 151°46'0 0.0
2018-Jan-23 17:18S 32°53' E 151°46'0 0.0
2018-Jan-23 17:00S 32°53' E 151°46'0 0.0
2018-Jan-23 16:30S 32°53' E 151°46'0 0.0
2018-Jan-23 15:42S 32°53' E 151°46'0 0.0
2018-Jan-23 15:30S 32°53' E 151°46'0 0.0
2018-Jan-23 15:00S 32°53' E 151°46'0 0.0
2018-Jan-23 14:27S 32°53' E 151°46'0 0.0
2018-Jan-23 14:00S 32°53' E 151°46'0 0.0
2018-Jan-23 13:30S 32°53' E 151°46'0 0.0
2018-Jan-23 13:00S 32°53' E 151°46'0 0.0
2018-Jan-23 11:48S 32°53' E 151°46'0 0.0
2018-Jan-23 11:30S 32°53' E 151°46'0 0.0
2018-Jan-23 11:00S 32°53' E 151°46'0 0.0
2018-Jan-23 10:30S 32°53' E 151°46'0 0.0
2018-Jan-23 09:45S 32°53' E 151°46'0 0.0
2018-Jan-23 09:30S 32°53' E 151°46'0 0.0
2018-Jan-23 09:00S 32°53' E 151°46'0 0.0
2018-Jan-23 08:30S 32°53' E 151°46'0 0.0
2018-Jan-23 08:00S 32°53' E 151°46'0 0.0
2018-Jan-23 07:30S 32°53' E 151°46'0 0.0
2018-Jan-23 07:00S 32°53' E 151°46'0 1.0
2018-Jan-23 06:30S 32°54' E 151°46'2 3.8
2018-Jan-23 06:00S 32°55' E 151°48'5 9.0
2018-Jan-23 05:29S 32°58' E 151°52'2 5.0
2018-Jan-23 05:00S 33°01' E 151°52'5 9.4
2018-Jan-23 04:30S 33°05' E 151°49'1 1.8
2018-Jan-23 04:00S 33°05' E 151°49'1 1.6
2018-Jan-23 03:30S 33°06' E 151°50'1 1.4
2018-Jan-23 03:00S 33°06' E 151°51'1 1.4
2018-Jan-23 02:30S 33°06' E 151°52'1 1.4
2018-Jan-23 02:00S 33°06' E 151°52'1 1.2
2018-Jan-23 01:30S 33°06' E 151°53'1 1.4
2018-Jan-23 01:00S 33°06' E 151°54'1 1.5
2018-Jan-23 00:30S 33°06' E 151°55'1 1.6
2018-Jan-23 00:00S 33°06' E 151°56'1 1.5
2018-Jan-22 23:30S 33°07' E 151°57'1 1.8
2018-Jan-22 23:00S 33°07' E 151°58'1 2.1
2018-Jan-22 22:30S 33°08' E 151°59'5 9.5
2018-Jan-22 22:00S 33°12' E 151°60'611.0
2018-Jan-22 21:30S 33°18' E 151°59'611.8
2018-Jan-22 21:01S 33°21' E 151°53'612.1
2018-Jan-22 20:30S 33°24' E 151°47'3 3.9
2018-Jan-22 19:37S 33°27' E 151°44'0 1.2
2018-Jan-22 19:22S 33°27' E 151°44'1 1.2
2018-Jan-22 18:49S 33°27' E 151°45'0 1.3
2018-Jan-22 18:28S 33°27' E 151°46'2 1.6
2018-Jan-22 17:07S 33°26' E 151°48'0 1.8
2018-Jan-22 16:58S 33°26' E 151°48'2 1.9
2018-Jan-22 16:07S 33°25' E 151°50'0 2.0
2018-Jan-22 15:55S 33°25' E 151°51'1 2.0
2018-Jan-22 15:25S 33°24' E 151°52'1 2.2
2018-Jan-22 14:55S 33°24' E 151°53'1 2.4
2018-Jan-22 14:23S 33°23' E 151°54'1 2.6
2018-Jan-22 14:00S 33°23' E 151°55'1 2.7
2018-Jan-22 13:30S 33°22' E 151°56'1 2.8
2018-Jan-22 13:00S 33°21' E 151°58'2 3.2
2018-Jan-22 12:30S 33°20' E 151°59'2 3.3
2018-Jan-22 12:00S 33°19' E 152°00'2 3.3
2018-Jan-22 11:30S 33°18' E 152°02'2 3.3
2018-Jan-22 11:00S 33°17' E 152°04'2 3.5
2018-Jan-22 10:30S 33°16' E 152°05'2 3.5
2018-Jan-22 10:00S 33°15' E 152°07'2 3.4
2018-Jan-22 09:30S 33°14' E 152°09'2 3.3
2018-Jan-22 09:00S 33°13' E 152°11'2 3.2
2018-Jan-22 08:30S 33°12' E 152°12'2 3.2
2018-Jan-22 08:00S 33°12' E 152°14'2 3.1
2018-Jan-22 07:31S 33°11' E 152°15'2 3.0
2018-Jan-22 07:00S 33°10' E 152°17'1 2.7
2018-Jan-22 06:30S 33°10' E 152°19'5 9.2
2018-Jan-22 06:00S 33°15' E 152°19'511.0
2018-Jan-22 05:30S 33°20' E 152°19'611.2
2018-Jan-22 05:00S 33°26' E 152°20'611.2
2018-Jan-22 04:30S 33°31' E 152°20'611.2
2018-Jan-22 04:00S 33°37' E 152°21'611.1
2018-Jan-22 03:30S 33°43' E 152°22'511.1
2018-Jan-22 03:00S 33°48' E 152°23'611.1
2018-Jan-22 02:30S 33°53' E 152°25'511.0
2018-Jan-22 02:00S 33°59' E 152°26'3 6.3
2018-Jan-22 01:27S 34°02' E 152°26'1 2.9
2018-Jan-22 01:00S 34°01' E 152°26'1 2.9
2018-Jan-22 00:29S 33°59' E 152°26'1 3.0
2018-Jan-22 00:00S 33°58' E 152°25'2 3.0
2018-Jan-21 23:29S 33°56' E 152°25'1 2.9
2018-Jan-21 22:59S 33°55' E 152°25'1 2.9
2018-Jan-21 22:30S 33°54' E 152°25'1 2.9
2018-Jan-21 22:00S 33°52' E 152°24'1 2.7
2018-Jan-21 21:30S 33°51' E 152°24'1 2.8
2018-Jan-21 21:01S 33°49' E 152°24'1 2.7
2018-Jan-21 20:30S 33°48' E 152°23'1 2.7
2018-Jan-21 19:59S 33°47' E 152°23'1 2.8
2018-Jan-21 19:30S 33°45' E 152°22'1 2.6
2018-Jan-21 19:00S 33°44' E 152°22'2 2.7
2018-Jan-21 18:25S 33°43' E 152°22'1 2.8
2018-Jan-21 18:00S 33°42' E 152°21'1 2.9
2018-Jan-21 17:30S 33°40' E 152°21'1 2.9
2018-Jan-21 17:00S 33°39' E 152°21'1 2.9
2018-Jan-21 16:30S 33°37' E 152°20'2 3.0
2018-Jan-21 15:57S 33°36' E 152°20'2 3.0
2018-Jan-21 15:26S 33°34' E 152°20'3 2.9
2018-Jan-21 14:35S 33°32' E 152°19'0 2.9
2018-Jan-21 14:30S 33°31' E 152°19'2 3.0
2018-Jan-21 13:58S 33°30' E 152°19'1 3.1
2018-Jan-21 13:30S 33°28' E 152°19'2 3.1
2018-Jan-21 13:00S 33°27' E 152°19'2 3.3
2018-Jan-21 12:30S 33°25' E 152°19'2 3.2
2018-Jan-21 11:57S 33°23' E 152°19'2 3.3
2018-Jan-21 11:25S 33°22' E 152°20'1 3.2
2018-Jan-21 10:59S 33°20' E 152°20'2 3.2
2018-Jan-21 10:29S 33°19' E 152°20'1 3.1
2018-Jan-21 10:00S 33°17' E 152°21'2 3.0
2018-Jan-21 09:28S 33°16' E 152°21'1 2.9
2018-Jan-21 09:00S 33°14' E 152°21'1 2.9
2018-Jan-21 08:30S 33°13' E 152°22'1 2.8
2018-Jan-21 08:00S 33°12' E 152°22'1 2.6
2018-Jan-21 07:30S 33°10' E 152°23'1 2.5
2018-Jan-21 07:00S 33°09' E 152°23'1 2.4
2018-Jan-21 06:30S 33°08' E 152°24'1 2.3
2018-Jan-21 05:58S 33°07' E 152°25'1 2.2
2018-Jan-21 05:27S 33°06' E 152°25'1 2.0
2018-Jan-21 04:51S 33°05' E 152°25'1 2.0
2018-Jan-21 04:28S 33°04' E 152°25'3 7.0
2018-Jan-21 04:01S 33°04' E 152°21'611.3
2018-Jan-21 03:31S 33°06' E 152°15'611.3
2018-Jan-21 03:00S 33°07' E 152°08'611.8
2018-Jan-21 02:30S 33°09' E 152°02'611.8
2018-Jan-21 02:01S 33°11' E 151°55'4 7.5
2018-Jan-21 01:30S 33°12' E 151°51'1 1.5
2018-Jan-21 00:50S 33°11' E 151°52'1 1.3
2018-Jan-21 00:17S 33°11' E 151°53'1 1.1
2018-Jan-20 23:50S 33°11' E 151°53'0 1.1
2018-Jan-20 23:29S 33°11' E 151°54'1 0.9
2018-Jan-20 22:53S 33°11' E 151°54'0 1.0
2018-Jan-20 22:26S 33°11' E 151°55'1 0.9
2018-Jan-20 21:50S 33°11' E 151°56'0 1.0
2018-Jan-20 21:26S 33°11' E 151°56'0 1.0
2018-Jan-20 20:59S 33°11' E 151°57'1 0.9
2018-Jan-20 20:26S 33°12' E 151°57'1 0.8
2018-Jan-20 19:02S 33°12' E 151°59'0 0.7
2018-Jan-20 18:44S 33°12' E 151°59'0 0.8
2018-Jan-20 18:17S 33°12' E 151°59'0 0.6
2018-Jan-20 17:56S 33°12' E 151°60'0 0.8
2018-Jan-20 17:29S 33°12' E 151°60'0 0.7
2018-Jan-20 16:56S 33°12' E 152°00'1 0.8
2018-Jan-20 16:14S 33°12' E 152°01'0 0.8
2018-Jan-20 15:56S 33°12' E 152°01'0 0.8
2018-Jan-20 15:29S 33°12' E 152°02'1 0.9
2018-Jan-20 14:53S 33°12' E 152°02'0 0.9
2018-Jan-20 14:26S 33°12' E 152°03'0 0.9
2018-Jan-20 13:56S 33°11' E 152°03'1 1.1
2018-Jan-20 13:26S 33°11' E 152°04'0 1.1
2018-Jan-20 12:59S 33°11' E 152°05'1 1.2
2018-Jan-20 12:26S 33°11' E 152°05'1 1.5
2018-Jan-20 11:56S 33°11' E 152°06'1 1.8
2018-Jan-20 11:23S 33°10' E 152°07'1 1.9
2018-Jan-20 10:59S 33°10' E 152°08'1 1.9
2018-Jan-20 10:26S 33°09' E 152°09'1 2.2
2018-Jan-20 09:59S 33°09' E 152°10'1 2.2
2018-Jan-20 09:27S 33°08' E 152°11'1 2.1
2018-Jan-20 09:00S 33°08' E 152°12'1 2.1
2018-Jan-20 08:30S 33°07' E 152°14'1 2.0
2018-Jan-20 08:00S 33°07' E 152°15'1 2.0
2018-Jan-20 07:30S 33°07' E 152°16'1 1.1
2018-Jan-20 07:00S 33°06' E 152°16'4 7.7
2018-Jan-20 06:30S 33°05' E 152°12'612.4
2018-Jan-20 06:00S 33°02' E 152°05'612.0
2018-Jan-20 05:31S 32°59' E 151°59'612.0
2018-Jan-20 05:01S 32°55' E 152°04'714.0
2018-Jan-20 04:30S 32°52' E 152°11'713.7
2018-Jan-20 04:00S 32°47' E 152°18'713.6
2018-Jan-20 03:30S 32°43' E 152°23'713.4
2018-Jan-20 03:00S 32°38' E 152°29'713.7
2018-Jan-20 02:30S 32°33' E 152°34'713.4
2018-Jan-20 02:00S 32°27' E 152°39'613.3
2018-Jan-20 01:31S 32°22' E 152°42'713.2
2018-Jan-20 01:00S 32°15' E 152°46'613.1
2018-Jan-20 00:30S 32°10' E 152°49'1612.8
2018-Jan-19 23:15S 31°55' E 152°56'412.9
2018-Jan-19 22:56S 31°51' E 152°58'613.0
2018-Jan-19 22:30S 31°46' E 153°01'713.0
2018-Jan-19 21:56S 31°39' E 153°05'713.1
2018-Jan-19 21:27S 31°33' E 153°08'613.1
2018-Jan-19 21:00S 31°28' E 153°10'2115.8
2018-Jan-19 19:40S 31°07' E 153°15'1910.7
2018-Jan-19 17:53S 30°49' E 153°20'513.1
2018-Jan-19 17:30S 30°44' E 153°21'2012.9
2018-Jan-19 15:59S 30°24' E 153°26'5512.4
2018-Jan-19 11:35S 29°31' E 153°40'1812.9
2018-Jan-19 10:09S 29°13' E 153°45'313.1
2018-Jan-19 09:57S 29°11' E 153°45'613.6
2018-Jan-19 09:28S 29°04' E 153°47'2713.4
2018-Jan-19 07:28S 28°38' E 153°47'813.6
2018-Jan-19 06:52S 28°29' E 153°47'513.7
2018-Jan-19 06:31S 28°25' E 153°47'713.7
2018-Jan-19 06:01S 28°18' E 153°47'713.8
2018-Jan-19 05:30S 28°11' E 153°47'713.0
2018-Jan-19 05:00S 28°04' E 153°47'612.4
2018-Jan-19 04:30S 27°58' E 153°47'612.6
2018-Jan-19 04:00S 27°52' E 153°47'612.9
2018-Jan-19 03:30S 27°45' E 153°48'712.6
2018-Jan-19 02:58S 27°39' E 153°48'612.8
2018-Jan-19 02:30S 27°33' E 153°48'612.1
2018-Jan-19 02:00S 27°26' E 153°49'712.6
2018-Jan-19 01:27S 27°20' E 153°50'612.6
2018-Jan-19 01:00S 27°14' E 153°50'612.6
2018-Jan-19 00:30S 27°08' E 153°50'912.9
2018-Jan-18 23:49S 26°59' E 153°51'513.0
2018-Jan-18 23:25S 26°54' E 153°52'613.3
2018-Jan-18 22:59S 26°48' E 153°52'613.4
2018-Jan-18 22:31S 26°42' E 153°53'713.0
2018-Jan-18 21:58S 26°35' E 153°53'1012.4
2018-Jan-18 21:08S 26°24' E 153°54'212.2
2018-Jan-18 21:00S 26°23' E 153°54'612.6
2018-Jan-18 20:29S 26°16' E 153°55'613.0
2018-Jan-18 20:00S 26°10' E 153°55'713.2
2018-Jan-18 19:30S 26°03' E 153°56'1614.2
2018-Jan-18 18:23S 25°47' E 153°57'713.7
2018-Jan-18 17:50S 25°40' E 153°57'612.8
2018-Jan-18 17:24S 25°34' E 153°58'512.6
2018-Jan-18 17:00S 25°30' E 153°58'  

Dump ship's entire track history